createdAt,value
2022-10-06T00:02:06.365Z,101274.31
2022-10-06T00:05:09.134Z,101276.97
2022-10-06T00:08:11.691Z,101277.87
2022-10-06T00:11:15.820Z,101276.03
2022-10-06T00:14:18.238Z,101280.53
2022-10-06T00:17:20.912Z,101282.31
2022-10-06T00:20:25.863Z,101274.25
2022-10-06T00:23:29.079Z,101280.50
2022-10-06T00:26:31.558Z,101284.09
2022-10-06T00:29:34.247Z,101281.37
2022-10-06T00:32:36.947Z,101278.66
2022-10-06T00:35:39.818Z,101292.97
2022-10-06T00:38:42.369Z,101287.56
2022-10-06T00:41:45.232Z,101293.81
2022-10-06T00:44:49.655Z,101299.13
2022-10-06T00:47:53.896Z,101313.44
2022-10-06T00:50:57.496Z,101307.09
2022-10-06T00:54:01.048Z,101315.16
2022-10-06T00:57:05.162Z,101321.34
2022-10-06T01:00:09.228Z,101324.84
2022-10-06T01:03:24.908Z,101320.28
2022-10-06T01:06:27.819Z,101317.50
2022-10-06T01:09:30.955Z,101321.94
2022-10-06T01:12:33.927Z,101324.56
2022-10-06T01:15:44.740Z,101322.75
2022-10-06T01:18:48.557Z,101325.44
2022-10-06T01:21:51.276Z,101321.87
2022-10-06T01:24:54.127Z,101321.81
2022-10-06T01:27:58.296Z,101315.53
2022-10-06T01:31:02.158Z,101306.47
2022-10-06T01:34:05.926Z,101308.25
2022-10-06T01:37:08.643Z,101313.66
2022-10-06T01:40:11.387Z,101319.88
2022-10-06T01:43:14.534Z,101324.28
2022-10-06T01:46:18.005Z,101328.72
2022-10-06T01:49:20.799Z,101335.97
2022-10-06T01:52:24.060Z,101339.50
2022-10-06T01:55:27.580Z,101337.69
2022-10-06T01:58:31.441Z,101340.38
2022-10-06T02:01:35.913Z,101345.75
2022-10-06T02:04:38.756Z,101352.03
2022-10-06T02:07:41.656Z,101352.81
2022-10-06T02:10:44.375Z,101340.25
2022-10-06T02:13:50.201Z,101312.41
2022-10-06T02:16:52.992Z,101307.94
2022-10-06T02:19:55.502Z,101310.56
2022-10-06T02:22:58.363Z,101301.66
2022-10-06T02:26:05.512Z,101300.81
2022-10-06T02:29:09.791Z,101304.44
2022-10-06T02:32:12.329Z,101308.00
2022-10-06T02:35:15.433Z,101286.34
2022-10-06T02:38:18.427Z,101323.12
2022-10-06T02:41:21.232Z,101314.13
2022-10-06T02:44:25.110Z,101306.88
2022-10-06T02:47:28.133Z,101316.62
2022-10-06T02:50:34.808Z,101313.03
2022-10-06T02:53:38.615Z,101310.31
2022-10-06T02:56:41.089Z,101316.50
2022-10-06T02:59:43.807Z,101313.72
2022-10-06T03:02:46.423Z,101318.16
2022-10-06T03:05:49.217Z,101314.59
2022-10-06T03:08:52.608Z,101311.91
2022-10-06T03:11:55.400Z,101317.22
2022-10-06T03:14:59.569Z,101315.44
2022-10-06T03:18:02.433Z,101319.91
2022-10-06T03:21:04.911Z,101320.78
2022-10-06T03:24:07.856Z,101324.28
2022-10-06T03:27:11.840Z,101323.34
2022-10-06T03:30:15.571Z,101326.09
2022-10-06T03:33:18.265Z,101334.16
2022-10-06T03:36:23.639Z,101340.50
2022-10-06T03:39:26.293Z,101338.63
2022-10-06T03:42:29.048Z,101350.31
2022-10-06T03:45:32.194Z,101349.44
2022-10-06T03:48:35.497Z,101347.59
2022-10-06T03:51:40.468Z,101340.31
2022-10-06T03:54:43.672Z,101349.38
2022-10-06T03:57:46.637Z,101345.75
2022-10-06T04:00:49.562Z,101352.84
2022-10-06T04:03:54.204Z,101353.66
2022-10-06T04:06:56.793Z,101357.22
2022-10-06T04:09:59.696Z,101359.91
2022-10-06T04:13:02.489Z,101366.19
2022-10-06T04:16:25.542Z,101365.31
2022-10-06T04:19:28.079Z,101365.31
2022-10-06T04:22:30.849Z,101365.37
2022-10-06T04:25:34.185Z,101365.44
2022-10-06T04:28:38.797Z,101367.28
2022-10-06T04:31:42.610Z,101368.22
2022-10-06T04:34:46.249Z,101372.69
2022-10-06T04:37:50.072Z,101373.63
2022-10-06T04:40:52.910Z,101374.53
2022-10-06T04:43:55.732Z,101389.81
2022-10-06T04:47:00.635Z,101386.31
2022-10-06T04:50:04.445Z,101389.03
2022-10-06T04:53:07.232Z,101398.03
2022-10-06T04:56:12.426Z,101390.06
2022-10-06T04:59:15.288Z,101395.50
2022-10-06T05:02:19.820Z,101400.00
2022-10-06T05:05:24.156Z,101387.53
2022-10-06T05:08:27.979Z,101392.91
2022-10-06T05:11:31.963Z,101391.16
2022-10-06T05:14:35.347Z,101395.66
2022-10-06T05:17:38.933Z,101401.09
2022-10-06T05:20:43.056Z,101398.50
2022-10-06T05:23:46.620Z,101403.91
2022-10-06T05:26:49.387Z,101411.19
2022-10-06T05:29:52.480Z,101407.69
2022-10-06T05:32:55.143Z,101409.63
2022-10-06T05:36:00.370Z,101417.72
2022-10-06T05:39:03.415Z,101418.69
2022-10-06T05:42:07.596Z,101419.63
2022-10-06T05:45:10.605Z,101429.53
2022-10-06T05:48:13.501Z,101432.28
2022-10-06T05:51:17.880Z,101439.53
2022-10-06T05:54:20.983Z,101439.53
2022-10-06T05:57:24.272Z,101447.66
2022-10-06T06:00:27.212Z,101431.50
2022-10-06T06:03:29.991Z,101454.03
2022-10-06T06:06:38.476Z,101459.47
2022-10-06T06:09:42.138Z,101461.31
2022-10-06T06:12:47.870Z,101466.72
2022-10-06T06:16:04.325Z,101470.31
2022-10-06T06:19:08.764Z,101468.56
2022-10-06T06:22:12.383Z,101475.78
2022-10-06T06:25:15.474Z,101475.88
2022-10-06T06:28:18.886Z,101481.31
2022-10-06T06:31:26.673Z,101489.41
2022-10-06T06:34:30.169Z,101490.41
2022-10-06T06:37:33.391Z,101502.97
2022-10-06T06:40:40.837Z,101503.97
2022-10-06T06:43:44.246Z,101497.78
2022-10-06T06:46:49.385Z,101513.09
2022-10-06T06:49:52.967Z,101518.63
2022-10-06T06:52:55.990Z,101514.22
2022-10-06T06:55:58.518Z,101514.31
2022-10-06T06:59:03.303Z,101516.19
2022-10-06T07:02:06.322Z,101517.12
2022-10-06T07:05:11.595Z,101514.53
2022-10-06T07:08:16.114Z,101511.84
2022-10-06T07:11:50.268Z,101522.66
2022-10-06T07:15:11.598Z,101533.47
2022-10-06T07:18:33.619Z,101532.41
2022-10-06T07:21:55.251Z,101545.78
2022-10-06T07:25:11.823Z,101536.97
2022-10-06T07:28:17.200Z,101529.28
2022-10-06T07:31:20.522Z,101520.56
2022-10-06T07:34:23.658Z,101521.31
2022-10-06T07:37:28.950Z,101530.09
2022-10-06T07:40:33.133Z,101521.72
2022-10-06T07:43:36.036Z,101529.44
2022-10-06T07:46:38.857Z,101527.44
2022-10-06T07:49:43.087Z,101525.47
2022-10-06T07:52:47.712Z,101526.13
2022-10-06T07:55:50.674Z,101532.59
2022-10-06T07:58:53.523Z,101542.56
2022-10-06T08:01:56.436Z,101541.22
2022-10-06T08:04:59.357Z,101545.72
2022-10-06T08:08:02.477Z,101547.88
2022-10-06T08:11:06.008Z,101542.50
2022-10-06T08:14:09.478Z,101542.69
2022-10-06T08:17:12.252Z,101548.13
2022-10-06T08:20:14.868Z,101539.28
2022-10-06T08:23:17.685Z,101544.84
2022-10-06T08:26:21.646Z,101551.72
2022-10-06T08:29:24.436Z,101558.78
2022-10-06T08:32:27.074Z,101551.16
2022-10-06T08:35:32.815Z,101570.44
2022-10-06T08:38:38.757Z,101567.53
2022-10-06T08:41:48.532Z,101566.25
2022-10-06T08:44:57.649Z,101554.22
2022-10-06T08:48:04.579Z,101557.91
2022-10-06T08:51:30.059Z,101550.34
2022-10-06T08:54:45.821Z,101554.28
2022-10-06T09:01:25.584Z,101546.09
2022-10-06T09:04:30.179Z,101553.31
2022-10-06T09:07:43.968Z,101548.56
2022-10-06T09:11:02.018Z,101549.72
2022-10-06T09:14:14.189Z,101554.50
2022-10-06T09:17:28.021Z,101548.03
2022-10-06T09:20:42.961Z,101550.94
2022-10-06T09:23:53.483Z,101552.09
2022-10-06T09:26:58.097Z,101544.97
2022-10-06T09:30:05.007Z,101552.31
2022-10-06T09:33:17.002Z,101550.69
2022-10-06T09:36:19.664Z,101554.50
2022-10-06T09:39:27.806Z,101550.00
2022-10-06T09:42:35.790Z,101557.16
2022-10-06T09:45:38.670Z,101552.25
2022-10-06T09:48:41.794Z,101533.06
2022-10-06T09:52:02.931Z,101536.34
2022-10-06T09:55:28.059Z,101544.03
2022-10-06T09:58:37.997Z,101555.44
2022-10-06T10:01:42.185Z,101552.88
2022-10-06T10:04:48.386Z,101544.34
2022-10-06T10:08:23.216Z,101556.19
2022-10-06T10:11:46.994Z,101555.72
2022-10-06T10:14:49.470Z,101557.69
2022-10-06T10:17:54.003Z,101551.94
2022-10-06T10:21:00.490Z,101561.72
2022-10-06T10:24:06.737Z,101554.59
2022-10-06T10:27:14.792Z,101550.34
2022-10-06T10:30:18.218Z,101558.19
2022-10-06T10:33:54.163Z,101558.25
2022-10-06T10:37:39.847Z,101549.78
2022-10-06T10:40:51.562Z,101561.72
2022-10-06T10:44:08.492Z,101557.88
2022-10-06T10:47:25.980Z,101551.03
2022-10-06T10:50:32.999Z,101557.69
2022-10-06T10:54:10.711Z,101554.59
2022-10-06T10:57:17.265Z,101544.44
2022-10-06T11:00:28.215Z,101535.28
2022-10-06T11:03:31.143Z,101541.78
2022-10-06T11:06:54.120Z,101549.41
2022-10-06T11:09:56.857Z,101542.28
2022-10-06T11:13:20.562Z,101539.91
2022-10-06T11:16:23.603Z,101535.94
2022-10-06T11:19:41.485Z,101539.16
2022-10-06T11:22:55.245Z,101544.06
2022-10-06T11:26:09.996Z,101530.66
2022-10-06T11:29:17.225Z,101530.25
2022-10-06T11:32:41.739Z,101530.41
2022-10-06T11:35:46.140Z,101530.59
2022-10-06T11:38:58.683Z,101524.22
2022-10-06T11:42:46.756Z,101523.25
2022-10-06T11:46:11.386Z,101527.25
2022-10-06T11:49:29.405Z,101525.03
2022-10-06T11:52:31.921Z,101515.84
2022-10-06T11:55:35.156Z,101522.94
2022-10-06T11:58:56.399Z,101522.50
2022-10-06T12:01:59.323Z,101511.66
2022-10-06T12:05:48.282Z,101516.69
2022-10-06T12:08:42.182Z,101519.44
2022-10-06T12:11:45.516Z,101514.06
2022-10-06T12:18:38.068Z,101497.75
2022-10-06T12:21:45.700Z,101500.75
2022-10-06T12:24:59.200Z,101505.06
2022-10-06T12:28:21.124Z,101498.06
2022-10-06T12:31:46.757Z,101505.66
2022-10-06T12:34:57.568Z,101506.25
2022-10-06T12:38:06.156Z,101502.13
2022-10-06T12:41:11.354Z,101491.37
2022-10-06T12:44:23.379Z,101505.91
2022-10-06T12:47:34.642Z,101496.94
2022-10-06T12:50:38.071Z,101498.91
2022-10-06T12:53:48.607Z,101494.19
2022-10-06T12:57:18.334Z,101494.91
2022-10-06T13:00:42.525Z,101492.16
2022-10-06T13:03:49.723Z,101491.50
2022-10-06T13:06:52.261Z,101495.28
2022-10-06T13:10:10.331Z,101490.87
2022-10-06T13:13:24.486Z,101487.34
2022-10-06T13:16:39.443Z,101485.00
2022-10-06T13:19:44.288Z,101480.25
2022-10-06T13:22:55.529Z,101480.47
2022-10-06T13:26:06.129Z,101478.19
2022-10-06T13:29:35.147Z,101479.19
2022-10-06T13:32:37.944Z,101479.34
2022-10-06T13:35:40.835Z,101477.50
2022-10-06T13:38:43.348Z,101475.00
2022-10-06T13:41:49.497Z,101481.19
2022-10-06T13:44:58.977Z,101489.28
2022-10-06T13:48:03.895Z,101489.91
2022-10-06T13:51:06.624Z,101494.00
2022-10-06T13:54:24.966Z,101495.50
2022-10-06T13:57:40.125Z,101494.13
2022-10-06T14:00:50.754Z,101489.53
2022-10-06T14:04:18.433Z,101491.66
2022-10-06T14:07:22.120Z,101490.87
2022-10-06T14:10:31.313Z,101493.72
2022-10-06T14:13:53.201Z,101502.50
2022-10-06T14:16:56.036Z,101499.25
2022-10-06T14:19:59.032Z,101497.69
2022-10-06T14:23:01.924Z,101499.00
2022-10-06T14:26:04.310Z,101497.75
2022-10-06T14:29:07.201Z,101496.12
2022-10-06T14:32:14.108Z,101502.31
2022-10-06T14:35:16.858Z,101494.28
2022-10-06T14:38:20.290Z,101501.47
2022-10-06T14:41:27.865Z,101496.31
2022-10-06T14:44:31.161Z,101497.47
2022-10-06T14:47:33.869Z,101496.00
2022-10-06T14:50:36.615Z,101497.16
2022-10-06T14:53:39.565Z,101491.03
2022-10-06T14:56:42.490Z,101507.81
2022-10-06T14:59:45.451Z,101499.09
2022-10-06T15:02:48.127Z,101493.63
2022-10-06T15:06:11.081Z,101499.97
2022-10-06T15:09:14.158Z,101508.19
2022-10-06T15:12:17.855Z,101503.56
2022-10-06T15:15:23.604Z,101509.13
2022-10-06T15:18:26.298Z,101507.38
2022-10-06T15:21:31.398Z,101503.75
2022-10-06T15:24:34.110Z,101502.06
2022-10-06T15:27:54.858Z,101502.91
2022-10-06T15:30:57.835Z,101507.44
2022-10-06T15:34:02.062Z,101496.56
2022-10-06T15:37:05.233Z,101499.47
2022-10-06T15:40:08.059Z,101509.62
2022-10-06T15:43:11.077Z,101512.66
2022-10-06T15:46:13.543Z,101514.78
2022-10-06T15:49:20.664Z,101518.59
2022-10-06T15:52:23.181Z,101519.88
2022-10-06T15:55:26.235Z,101523.06
2022-10-06T15:58:28.668Z,101521.44
2022-10-06T16:01:34.311Z,101526.44
2022-10-06T16:04:38.427Z,101531.38
2022-10-06T16:07:40.912Z,101531.94
2022-10-06T16:10:49.711Z,101538.81
2022-10-06T16:13:52.314Z,101547.59
2022-10-06T16:16:59.880Z,101554.31
2022-10-06T16:20:02.404Z,101541.13
2022-10-06T16:23:05.232Z,101553.25
2022-10-06T16:26:07.672Z,101556.28
2022-10-06T16:29:10.429Z,101566.63
2022-10-06T16:32:12.915Z,101560.56
2022-10-06T16:35:18.380Z,101565.44
2022-10-06T16:38:21.047Z,101563.91
2022-10-06T16:41:24.024Z,101574.12
2022-10-06T16:44:26.500Z,101581.66
2022-10-06T16:47:29.240Z,101575.53
2022-10-06T16:50:32.115Z,101577.56
2022-10-06T16:53:42.734Z,101564.38
2022-10-06T16:56:53.922Z,101586.13
2022-10-06T16:59:56.617Z,101598.97
2022-10-06T17:02:59.098Z,101602.75
2022-10-06T17:06:07.467Z,101595.63
2022-10-06T17:09:17.954Z,101598.47
2022-10-06T17:12:20.677Z,101598.59
2022-10-06T17:15:23.085Z,101602.31
2022-10-06T17:18:26.257Z,101611.50
2022-10-06T17:21:46.867Z,101607.06
2022-10-06T17:24:50.287Z,101611.66
2022-10-06T17:27:52.719Z,101612.66
2022-10-06T17:30:59.364Z,101619.06
2022-10-06T17:34:03.794Z,101606.56
2022-10-06T17:37:06.969Z,101612.97
2022-10-06T17:40:09.578Z,101614.00
2022-10-06T17:43:12.715Z,101622.25
2022-10-06T17:46:18.964Z,101613.28
2022-10-06T17:49:22.555Z,101621.50
2022-10-06T17:52:25.016Z,101615.25
2022-10-06T17:55:28.117Z,101621.47
2022-10-06T17:58:30.596Z,101620.56
2022-10-06T18:01:35.722Z,101620.41
2022-10-06T18:04:39.105Z,101597.06
2022-10-06T18:07:41.742Z,101620.56
2022-10-06T18:11:06.685Z,101620.75
2022-10-06T18:14:10.112Z,101629.84
2022-10-06T18:17:12.834Z,101629.94
2022-10-06T18:20:16.096Z,101636.34
2022-10-06T18:23:18.822Z,101624.66
2022-10-06T18:26:21.383Z,101628.34
2022-10-06T18:29:25.867Z,101624.78
2022-10-06T18:33:45.068Z,101632.00
2022-10-06T18:36:15.100Z,101633.87
2022-10-06T18:39:18.291Z,101633.06
2022-10-06T18:42:21.033Z,101633.94
2022-10-06T18:45:42.201Z,101643.91
2022-10-06T18:49:00.275Z,101643.91
2022-10-06T18:52:03.277Z,101652.97
2022-10-06T18:55:06.257Z,101654.84
2022-10-06T18:58:08.739Z,101648.56
2022-10-06T19:01:12.630Z,101650.37
2022-10-06T19:04:20.159Z,101654.91
2022-10-06T19:07:22.939Z,101656.72
2022-10-06T19:10:27.392Z,101660.31
2022-10-06T19:13:30.158Z,101660.31
2022-10-06T19:16:32.721Z,101672.06
2022-10-06T19:19:35.759Z,101657.69
2022-10-06T19:22:38.671Z,101664.00
2022-10-06T19:25:41.406Z,101659.50
2022-10-06T19:28:43.962Z,101663.09
2022-10-06T19:31:48.046Z,101661.31
2022-10-06T19:34:50.623Z,101666.72
2022-10-06T19:37:53.390Z,101667.63
2022-10-06T19:41:17.111Z,101673.94
2022-10-06T19:44:19.816Z,101663.13
2022-10-06T19:47:22.489Z,101673.03
2022-10-06T19:50:27.233Z,101672.12
2022-10-06T19:53:30.693Z,101669.47
2022-10-06T19:56:33.721Z,101672.16
2022-10-06T19:59:36.764Z,101675.75
2022-10-06T20:02:42.794Z,101673.97
2022-10-06T20:05:46.205Z,101677.56
2022-10-06T20:08:48.694Z,101679.38
2022-10-06T20:11:51.730Z,101674.84
2022-10-06T20:14:54.173Z,101673.94
2022-10-06T20:17:56.871Z,101673.03
2022-10-06T20:20:59.295Z,101682.03
2022-10-06T20:24:07.459Z,101678.44
2022-10-06T20:27:10.277Z,101689.22
2022-10-06T20:30:13.483Z,101682.91
2022-10-06T20:33:17.421Z,101678.41
2022-10-06T20:36:20.262Z,101683.84
2022-10-06T20:39:42.013Z,101691.03
2022-10-06T20:42:49.209Z,101677.50
2022-10-06T20:45:53.739Z,101681.09
2022-10-06T20:48:56.747Z,101677.50
2022-10-06T20:51:59.356Z,101682.03
2022-10-06T20:55:02.097Z,101679.31
2022-10-06T20:58:04.566Z,101668.50
2022-10-06T21:01:12.732Z,101678.41
2022-10-06T21:04:15.410Z,101682.88
2022-10-06T21:07:18.572Z,101680.16
2022-10-06T21:10:22.713Z,101654.91
2022-10-06T21:13:25.914Z,101684.69
2022-10-06T21:16:33.513Z,101672.97
2022-10-06T21:19:37.913Z,101674.78
2022-10-06T21:22:40.538Z,101680.16
2022-10-06T21:25:43.267Z,101672.03
2022-10-06T21:28:46.249Z,101685.53
2022-10-06T21:31:49.011Z,101675.69
2022-10-06T21:34:55.924Z,101672.12
2022-10-06T21:37:58.662Z,101673.00
2022-10-06T21:41:02.628Z,101673.91
2022-10-06T21:44:06.636Z,101677.47
2022-10-06T21:47:09.190Z,101675.59
2022-10-06T21:50:12.785Z,101678.31
2022-10-06T21:53:15.267Z,101672.91
2022-10-06T21:56:18.439Z,101670.28
2022-10-06T21:59:21.223Z,101674.78
2022-10-06T22:02:24.004Z,101679.31
2022-10-06T22:05:26.809Z,101684.72
2022-10-06T22:08:34.652Z,101682.00
2022-10-06T22:11:39.181Z,101678.41
2022-10-06T22:14:41.990Z,101677.50
2022-10-06T22:17:46.784Z,101677.53
2022-10-06T22:20:49.627Z,101669.41
2022-10-06T22:24:00.412Z,101668.53
2022-10-06T22:27:03.185Z,101664.03
2022-10-06T22:30:08.297Z,101656.84
2022-10-06T22:33:10.954Z,101660.44
2022-10-06T22:36:13.983Z,101660.41
2022-10-06T22:39:16.595Z,101651.41
2022-10-06T22:42:19.414Z,101655.00
2022-10-06T22:45:21.916Z,101659.50
2022-10-06T22:48:25.054Z,101657.72
2022-10-06T22:51:29.881Z,101654.09
2022-10-06T22:54:32.611Z,101656.81
2022-10-06T22:57:35.103Z,101655.91
2022-10-06T23:00:38.005Z,101654.09
2022-10-06T23:03:41.002Z,101655.03
2022-10-06T23:06:43.765Z,101642.41
2022-10-06T23:09:46.243Z,101649.59
2022-10-06T23:12:54.065Z,101649.59
2022-10-06T23:16:06.497Z,101655.91
2022-10-06T23:19:10.646Z,101654.09
2022-10-06T23:22:13.243Z,101653.22
2022-10-06T23:25:15.978Z,101650.50
2022-10-06T23:28:18.635Z,101653.19
2022-10-06T23:31:21.994Z,101648.62
2022-10-06T23:34:24.639Z,101642.38
2022-10-06T23:37:27.427Z,101641.44
2022-10-06T23:40:30.349Z,101640.53
2022-10-06T23:43:33.602Z,101647.78
2022-10-06T23:46:36.031Z,101654.94
2022-10-06T23:49:38.789Z,101649.56
2022-10-06T23:52:41.763Z,101645.97
2022-10-06T23:55:44.509Z,101644.19
2022-10-06T23:58:47.129Z,101647.78
